sensor_id;sensor_type;location;lat;lon;timestamp;pressure;altitude;pressure_sealevel;temperature;humidity
58385;BME280;44185;47.844;8.966;2023-07-02T00:02:21;95734.78;;;15.75;100.00
58385;BME280;44185;47.844;8.966;2023-07-02T00:04:47;95730.34;;;15.67;100.00
58385;BME280;44185;47.844;8.966;2023-07-02T00:07:13;95730.22;;;15.60;100.00
58385;BME280;44185;47.844;8.966;2023-07-02T00:09:39;95728.56;;;15.59;100.00
58385;BME280;44185;47.844;8.966;2023-07-02T00:12:07;95727.03;;;15.65;100.00
58385;BME280;44185;47.844;8.966;2023-07-02T00:14:33;95724.50;;;15.63;100.00
58385;BME280;44185;47.844;8.966;2023-07-02T00:16:59;95735.03;;;15.65;100.00
58385;BME280;44185;47.844;8.966;2023-07-02T00:19:25;95735.13;;;15.72;100.00
58385;BME280;44185;47.844;8.966;2023-07-02T00:21:51;95736.66;;;15.66;100.00
58385;BME280;44185;47.844;8.966;2023-07-02T00:24:16;95738.28;;;15.75;100.00
58385;BME280;44185;47.844;8.966;2023-07-02T00:26:42;95735.56;;;15.60;100.00
58385;BME280;44185;47.844;8.966;2023-07-02T00:29:09;95738.56;;;15.57;100.00
58385;BME280;44185;47.844;8.966;2023-07-02T00:31:35;95744.59;;;15.51;100.00
58385;BME280;44185;47.844;8.966;2023-07-02T00:34:01;95741.47;;;15.47;100.00
58385;BME280;44185;47.844;8.966;2023-07-02T00:36:27;95736.94;;;15.48;100.00
58385;BME280;44185;47.844;8.966;2023-07-02T00:38:53;95746.72;;;15.55;100.00
58385;BME280;44185;47.844;8.966;2023-07-02T00:41:18;95743.59;;;15.52;100.00
58385;BME280;44185;47.844;8.966;2023-07-02T00:43:44;95730.50;;;15.42;100.00
58385;BME280;44185;47.844;8.966;2023-07-02T00:46:11;95731.47;;;15.49;100.00
58385;BME280;44185;47.844;8.966;2023-07-02T00:48:38;95731.56;;;15.56;100.00
58385;BME280;44185;47.844;8.966;2023-07-02T00:51:05;95724.94;;;15.52;100.00
58385;BME280;44185;47.844;8.966;2023-07-02T00:53:31;95735.91;;;15.57;100.00
58385;BME280;44185;47.844;8.966;2023-07-02T00:55:56;95730.03;;;15.62;100.00
58385;BME280;44185;47.844;8.966;2023-07-02T00:58:22;95729.56;;;15.58;100.00
58385;BME280;44185;47.844;8.966;2023-07-02T01:00:47;95734.00;;;15.66;100.00
58385;BME280;44185;47.844;8.966;2023-07-02T01:03:14;95736.84;;;15.64;100.00
58385;BME280;44185;47.844;8.966;2023-07-02T01:05:40;95732.13;;;15.75;100.00
58385;BME280;44185;47.844;8.966;2023-07-02T01:08:06;95727.63;;;15.75;100.00
58385;BME280;44185;47.844;8.966;2023-07-02T01:10:31;95718.97;;;15.73;100.00
58385;BME280;44185;47.844;8.966;2023-07-02T01:12:59;95723.56;;;15.79;100.00
58385;BME280;44185;47.844;8.966;2023-07-02T01:15:26;95719.91;;;15.81;100.00
58385;BME280;44185;47.844;8.966;2023-07-02T01:17:52;95723.88;;;15.85;100.00
58385;BME280;44185;47.844;8.966;2023-07-02T01:20:19;95723.34;;;15.89;100.00
58385;BME280;44185;47.844;8.966;2023-07-02T01:22:45;95722.88;;;15.86;100.00
58385;BME280;44185;47.844;8.966;2023-07-02T01:25:11;95732.41;;;15.80;100.00
58385;BME280;44185;47.844;8.966;2023-07-02T01:27:38;95740.72;;;15.85;100.00
58385;BME280;44185;47.844;8.966;2023-07-02T01:30:04;95736.75;;;15.81;100.00
58385;BME280;44185;47.844;8.966;2023-07-02T01:32:29;95738.88;;;15.86;100.00
58385;BME280;44185;47.844;8.966;2023-07-02T01:34:55;95741.25;;;15.81;100.00
58385;BME280;44185;47.844;8.966;2023-07-02T01:37:22;95739.22;;;15.83;100.00
58385;BME280;44185;47.844;8.966;2023-07-02T01:39:48;95744.63;;;15.74;100.00
58385;BME280;44185;47.844;8.966;2023-07-02T01:42:14;95737.59;;;15.82;100.00
58385;BME280;44185;47.844;8.966;2023-07-02T01:44:40;95742.91;;;15.82;100.00
58385;BME280;44185;47.844;8.966;2023-07-02T01:47:06;95747.97;;;15.76;100.00
58385;BME280;44185;47.844;8.966;2023-07-02T01:49:31;95736.25;;;15.77;100.00
58385;BME280;44185;47.844;8.966;2023-07-02T01:51:57;95734.31;;;15.71;100.00
58385;BME280;44185;47.844;8.966;2023-07-02T01:54:25;95743.28;;;15.78;100.00
58385;BME280;44185;47.844;8.966;2023-07-02T01:56:51;95735.63;;;15.75;100.00
58385;BME280;44185;47.844;8.966;2023-07-02T01:59:16;95744.44;;;15.76;100.00
58385;BME280;44185;47.844;8.966;2023-07-02T02:01:44;95742.25;;;15.79;100.00
58385;BME280;44185;47.844;8.966;2023-07-02T02:04:10;95732.31;;;15.73;100.00
58385;BME280;44185;47.844;8.966;2023-07-02T02:06:37;95733.53;;;15.62;100.00
58385;BME280;44185;47.844;8.966;2023-07-02T02:09:03;95745.75;;;15.56;100.00
58385;BME280;44185;47.844;8.966;2023-07-02T02:11:31;95746.69;;;15.64;100.00
58385;BME280;44185;47.844;8.966;2023-07-02T02:13:57;95744.16;;;15.71;100.00
58385;BME280;44185;47.844;8.966;2023-07-02T02:16:23;95738.63;;;15.72;100.00
58385;BME280;44185;47.844;8.966;2023-07-02T02:18:48;95734.31;;;15.71;100.00
58385;BME280;44185;47.844;8.966;2023-07-02T02:21:17;95739.47;;;15.73;100.00
58385;BME280;44185;47.844;8.966;2023-07-02T02:23:43;95737.09;;;15.78;100.00
58385;BME280;44185;47.844;8.966;2023-07-02T02:26:08;95740.16;;;15.66;100.00
58385;BME280;44185;47.844;8.966;2023-07-02T02:28:35;95732.16;;;15.66;100.00
58385;BME280;44185;47.844;8.966;2023-07-02T02:31:01;95739.13;;;15.76;100.00
58385;BME280;44185;47.844;8.966;2023-07-02T02:33:26;95735.13;;;15.72;100.00
58385;BME280;44185;47.844;8.966;2023-07-02T02:35:52;95738.28;;;15.75;100.00
58385;BME280;44185;47.844;8.966;2023-07-02T02:38:17;95730.09;;;15.77;100.00
58385;BME280;44185;47.844;8.966;2023-07-02T02:40:43;95739.97;;;15.76;100.00
58385;BME280;44185;47.844;8.966;2023-07-02T02:43:08;95735.44;;;15.77;100.00
58385;BME280;44185;47.844;8.966;2023-07-02T02:45:35;95742.38;;;15.86;100.00
58385;BME280;44185;47.844;8.966;2023-07-02T02:48:01;95731.81;;;15.70;100.00
58385;BME280;44185;47.844;8.966;2023-07-02T02:50:26;95736.44;;;15.76;100.00
58385;BME280;44185;47.844;8.966;2023-07-02T02:52:53;95738.28;;;15.75;100.00
58385;BME280;44185;47.844;8.966;2023-07-02T02:55:18;95747.88;;;15.85;100.00
58385;BME280;44185;47.844;8.966;2023-07-02T02:57:44;95747.22;;;15.83;100.00
58385;BME280;44185;47.844;8.966;2023-07-02T03:00:10;95754.78;;;15.79;100.00
58385;BME280;44185;47.844;8.966;2023-07-02T03:02:37;95753.94;;;15.78;100.00
58385;BME280;44185;47.844;8.966;2023-07-02T03:05:03;95758.25;;;15.79;100.00
58385;BME280;44185;47.844;8.966;2023-07-02T03:07:29;95737.16;;;15.70;100.00
58385;BME280;44185;47.844;8.966;2023-07-02T03:09:55;95751.31;;;15.70;100.00
58385;BME280;44185;47.844;8.966;2023-07-02T03:12:24;95748.16;;;15.66;100.00
58385;BME280;44185;47.844;8.966;2023-07-02T03:14:50;95762.88;;;15.62;100.00
58385;BME280;44185;47.844;8.966;2023-07-02T03:17:16;95747.47;;;15.73;100.00
58385;BME280;44185;47.844;8.966;2023-07-02T03:19:42;95756.34;;;15.65;100.00
58385;BME280;44185;47.844;8.966;2023-07-02T03:22:08;95757.16;;;15.74;100.00
58385;BME280;44185;47.844;8.966;2023-07-02T03:24:33;95759.13;;;15.72;100.00
58385;BME280;44185;47.844;8.966;2023-07-02T03:27:02;95757.66;;;15.69;100.00
58385;BME280;44185;47.844;8.966;2023-07-02T03:29:27;95761.81;;;15.72;100.00
58385;BME280;44185;47.844;8.966;2023-07-02T03:31:58;95763.41;;;15.57;100.00
58385;BME280;44185;47.844;8.966;2023-07-02T03:34:23;95764.06;;;15.60;100.00
58385;BME280;44185;47.844;8.966;2023-07-02T03:36:50;95760.06;;;15.55;100.00
58385;BME280;44185;47.844;8.966;2023-07-02T03:39:15;95762.38;;;15.59;100.00
58385;BME280;44185;47.844;8.966;2023-07-02T03:41:41;95759.91;;;15.57;100.00
58385;BME280;44185;47.844;8.966;2023-07-02T03:44:07;95768.03;;;15.64;100.00
58385;BME280;44185;47.844;8.966;2023-07-02T03:46:33;95768.38;;;15.61;100.00
58385;BME280;44185;47.844;8.966;2023-07-02T03:48:59;95771.81;;;15.70;100.00
58385;BME280;44185;47.844;8.966;2023-07-02T03:51:27;95767.91;;;15.57;100.00
58385;BME280;44185;47.844;8.966;2023-07-02T03:53:54;95765.88;;;15.59;100.00
58385;BME280;44185;47.844;8.966;2023-07-02T03:56:20;95771.34;;;15.66;100.00
58385;BME280;44185;47.844;8.966;2023-07-02T03:58:49;95777.19;;;15.61;100.00
58385;BME280;44185;47.844;8.966;2023-07-02T04:01:20;95782.19;;;15.64;100.00
58385;BME280;44185;47.844;8.966;2023-07-02T04:03:48;95787.53;;;15.64;100.00
58385;BME280;44185;47.844;8.966;2023-07-02T04:06:14;95781.06;;;15.59;100.00
58385;BME280;44185;47.844;8.966;2023-07-02T04:08:42;95784.84;;;15.64;100.00
58385;BME280;44185;47.844;8.966;2023-07-02T04:11:09;95789.00;;;15.67;100.00
58385;BME280;44185;47.844;8.966;2023-07-02T04:13:38;95791.91;;;15.57;100.00
58385;BME280;44185;47.844;8.966;2023-07-02T04:16:04;95799.88;;;15.65;100.00
58385;BME280;44185;47.844;8.966;2023-07-02T04:18:29;95788.91;;;15.60;100.00
58385;BME280;44185;47.844;8.966;2023-07-02T04:20:55;95798.06;;;15.57;100.00
58385;BME280;44185;47.844;8.966;2023-07-02T04:23:21;95802.38;;;15.59;100.00
58385;BME280;44185;47.844;8.966;2023-07-02T04:25:46;95800.66;;;15.66;100.00
58385;BME280;44185;47.844;8.966;2023-07-02T04:28:13;95801.34;;;15.68;100.00
58385;BME280;44185;47.844;8.966;2023-07-02T04:30:39;95805.66;;;15.69;100.00
58385;BME280;44185;47.844;8.966;2023-07-02T04:33:06;95803.69;;;15.71;100.00
58385;BME280;44185;47.844;8.966;2023-07-02T04:35:34;95810.69;;;15.64;100.00
58385;BME280;44185;47.844;8.966;2023-07-02T04:37:59;95804.66;;;15.70;100.00
58385;BME280;44185;47.844;8.966;2023-07-02T04:40:25;95808.81;;;15.73;100.00
58385;BME280;44185;47.844;8.966;2023-07-02T04:42:50;95818.13;;;15.77;100.00
58385;BME280;44185;47.844;8.966;2023-07-02T04:45:20;95812.63;;;15.78;100.00
58385;BME280;44185;47.844;8.966;2023-07-02T04:47:46;95806.66;;;15.76;100.00
58385;BME280;44185;47.844;8.966;2023-07-02T04:50:11;95813.16;;;15.74;100.00
58385;BME280;44185;47.844;8.966;2023-07-02T04:52:37;95806.09;;;15.81;100.00
58385;BME280;44185;47.844;8.966;2023-07-02T04:55:03;95811.44;;;15.81;100.00
58385;BME280;44185;47.844;8.966;2023-07-02T04:57:28;95814.75;;;15.83;100.00
58385;BME280;44185;47.844;8.966;2023-07-02T04:59:54;95817.72;;;15.88;100.00
58385;BME280;44185;47.844;8.966;2023-07-02T05:02:22;95821.22;;;15.89;100.00
58385;BME280;44185;47.844;8.966;2023-07-02T05:04:48;95821.53;;;15.94;100.00
58385;BME280;44185;47.844;8.966;2023-07-02T05:07:16;95838.72;;;15.92;100.00
58385;BME280;44185;47.844;8.966;2023-07-02T05:09:41;95828.69;;;15.94;100.00
58385;BME280;44185;47.844;8.966;2023-07-02T05:12:08;95835.88;;;15.93;100.00
58385;BME280;44185;47.844;8.966;2023-07-02T05:14:34;95842.53;;;15.97;100.00
58385;BME280;44185;47.844;8.966;2023-07-02T05:16:59;95835.91;;;15.85;100.00
58385;BME280;44185;47.844;8.966;2023-07-02T05:19:29;95830.81;;;15.75;100.00
58385;BME280;44185;47.844;8.966;2023-07-02T05:21:54;95832.28;;;15.77;100.00
58385;BME280;44185;47.844;8.966;2023-07-02T05:24:20;95846.34;;;15.71;100.00
58385;BME280;44185;47.844;8.966;2023-07-02T05:26:45;95849.56;;;15.58;100.00
58385;BME280;44185;47.844;8.966;2023-07-02T05:29:11;95845.22;;;15.65;100.00
58385;BME280;44185;47.844;8.966;2023-07-02T05:31:38;95860.38;;;15.65;100.00
58385;BME280;44185;47.844;8.966;2023-07-02T05:34:04;95847.56;;;15.60;100.00
58385;BME280;44185;47.844;8.966;2023-07-02T05:36:30;95859.19;;;15.67;100.00
58385;BME280;44185;47.844;8.966;2023-07-02T05:38:56;95856.00;;;15.72;100.00
58385;BME280;44185;47.844;8.966;2023-07-02T05:41:21;95858.50;;;15.74;100.00
58385;BME280;44185;47.844;8.966;2023-07-02T05:43:47;95861.53;;;15.71;100.00
58385;BME280;44185;47.844;8.966;2023-07-02T05:46:16;95858.88;;;15.62;100.00
58385;BME280;44185;47.844;8.966;2023-07-02T05:48:41;95865.09;;;15.54;100.00
58385;BME280;44185;47.844;8.966;2023-07-02T05:51:07;95865.94;;;15.55;100.00
58385;BME280;44185;47.844;8.966;2023-07-02T05:53:34;95866.25;;;15.52;100.00
58385;BME280;44185;47.844;8.966;2023-07-02T05:56:00;95857.13;;;15.46;100.00
58385;BME280;44185;47.844;8.966;2023-07-02T05:58:25;95860.78;;;15.45;100.00
58385;BME280;44185;47.844;8.966;2023-07-02T06:00:51;95870.09;;;15.57;100.00
58385;BME280;44185;47.844;8.966;2023-07-02T06:03:16;95875.25;;;15.51;100.00
58385;BME280;44185;47.844;8.966;2023-07-02T06:05:42;95882.72;;;15.55;100.00
58385;BME280;44185;47.844;8.966;2023-07-02T06:08:08;95874.41;;;15.50;100.00
58385;BME280;44185;47.844;8.966;2023-07-02T06:10:34;95877.81;;;15.36;100.00
58385;BME280;44185;47.844;8.966;2023-07-02T06:13:00;95876.31;;;15.33;100.00
58385;BME280;44185;47.844;8.966;2023-07-02T06:15:25;95881.47;;;15.34;100.00
58385;BME280;44185;47.844;8.966;2023-07-02T06:17:54;95882.97;;;15.37;100.00
58385;BME280;44185;47.844;8.966;2023-07-02T06:20:19;95890.31;;;15.27;100.00
58385;BME280;44185;47.844;8.966;2023-07-02T06:22:45;95897.47;;;15.34;100.00
58385;BME280;44185;47.844;8.966;2023-07-02T06:25:10;95899.31;;;15.34;100.00
58385;BME280;44185;47.844;8.966;2023-07-02T06:27:37;95900.13;;;15.34;100.00
58385;BME280;44185;47.844;8.966;2023-07-02T06:30:03;95900.63;;;15.47;100.00
58385;BME280;44185;47.844;8.966;2023-07-02T06:32:28;95906.41;;;15.50;100.00
58385;BME280;44185;47.844;8.966;2023-07-02T06:34:54;95907.88;;;15.61;100.00
58385;BME280;44185;47.844;8.966;2023-07-02T06:37:19;95909.88;;;15.67;100.00
58385;BME280;44185;47.844;8.966;2023-07-02T06:39:45;95917.22;;;15.65;100.00
58385;BME280;44185;47.844;8.966;2023-07-02T06:42:10;95918.72;;;15.68;100.00
58385;BME280;44185;47.844;8.966;2023-07-02T06:44:37;95920.66;;;15.74;100.00
58385;BME280;44185;47.844;8.966;2023-07-02T06:47:03;95923.19;;;15.76;100.00
58385;BME280;44185;47.844;8.966;2023-07-02T06:49:28;95926.31;;;15.79;100.00
58385;BME280;44185;47.844;8.966;2023-07-02T06:51:54;95933.59;;;15.94;100.00
58385;BME280;44185;47.844;8.966;2023-07-02T06:54:19;95938.28;;;15.92;100.00
58385;BME280;44185;47.844;8.966;2023-07-02T06:56:44;95937.22;;;16.10;100.00
58385;BME280;44185;47.844;8.966;2023-07-02T06:59:10;95943.00;;;16.22;100.00
58385;BME280;44185;47.844;8.966;2023-07-02T07:01:36;95934.63;;;16.25;100.00
58385;BME280;44185;47.844;8.966;2023-07-02T07:04:02;95942.19;;;16.45;100.00
58385;BME280;44185;47.844;8.966;2023-07-02T07:06:28;95940.44;;;16.61;100.00
58385;BME280;44185;47.844;8.966;2023-07-02T07:08:54;95936.91;;;16.84;100.00
58385;BME280;44185;47.844;8.966;2023-07-02T07:11:19;95942.81;;;17.18;100.00
58385;BME280;44185;47.844;8.966;2023-07-02T07:13:45;95940.75;;;17.43;100.00
58385;BME280;44185;47.844;8.966;2023-07-02T07:16:11;95943.94;;;17.23;100.00
58385;BME280;44185;47.844;8.966;2023-07-02T07:18:37;95950.50;;;17.36;100.00
58385;BME280;44185;47.844;8.966;2023-07-02T07:21:03;95950.06;;;17.78;100.00
58385;BME280;44185;47.844;8.966;2023-07-02T07:23:28;95956.69;;;17.52;100.00
58385;BME280;44185;47.844;8.966;2023-07-02T07:25:54;95950.59;;;17.28;100.00
58385;BME280;44185;47.844;8.966;2023-07-02T07:28:19;95951.41;;;17.28;100.00
58385;BME280;44185;47.844;8.966;2023-07-02T07:30:45;95958.41;;;16.90;100.00
58385;BME280;44185;47.844;8.966;2023-07-02T07:33:10;95948.19;;;16.94;100.00
58385;BME280;44185;47.844;8.966;2023-07-02T07:35:37;95949.00;;;17.18;100.00
58385;BME280;44185;47.844;8.966;2023-07-02T07:38:03;95954.22;;;17.11;100.00
58385;BME280;44185;47.844;8.966;2023-07-02T07:40:28;95960.56;;;17.10;100.00
58385;BME280;44185;47.844;8.966;2023-07-02T07:42:54;95950.00;;;17.17;100.00
58385;BME280;44185;47.844;8.966;2023-07-02T07:45:19;95954.28;;;17.42;100.00
58385;BME280;44185;47.844;8.966;2023-07-02T07:47:45;95949.00;;;17.18;100.00
58385;BME280;44185;47.844;8.966;2023-07-02T07:50:10;95960.75;;;17.48;100.00
58385;BME280;44185;47.844;8.966;2023-07-02T07:52:38;95951.97;;;17.23;100.00
58385;BME280;44185;47.844;8.966;2023-07-02T07:55:04;95955.41;;;17.48;100.00
58385;BME280;44185;47.844;8.966;2023-07-02T07:57:30;95959.66;;;17.72;100.00
58385;BME280;44185;47.844;8.966;2023-07-02T07:59:55;95953.38;;;17.80;99.22
58385;BME280;44185;47.844;8.966;2023-07-02T08:02:20;95960.50;;;17.73;95.79
58385;BME280;44185;47.844;8.966;2023-07-02T08:04:46;95953.47;;;18.02;96.22
58385;BME280;44185;47.844;8.966;2023-07-02T08:07:11;95957.09;;;18.47;93.11
58385;BME280;44185;47.844;8.966;2023-07-02T08:09:38;95955.38;;;18.83;88.66
58385;BME280;44185;47.844;8.966;2023-07-02T08:12:04;95963.75;;;18.95;89.32
58385;BME280;44185;47.844;8.966;2023-07-02T08:14:29;95954.16;;;19.29;86.50
58385;BME280;44185;47.844;8.966;2023-07-02T08:16:55;95950.00;;;19.27;86.02
58385;BME280;44185;47.844;8.966;2023-07-02T08:19:20;95950.31;;;19.45;88.63
58385;BME280;44185;47.844;8.966;2023-07-02T08:21:46;95950.81;;;19.56;83.17
58385;BME280;44185;47.844;8.966;2023-07-02T08:24:11;95959.75;;;20.06;82.63
58385;BME280;44185;47.844;8.966;2023-07-02T08:26:38;95964.03;;;20.36;83.57
58385;BME280;44185;47.844;8.966;2023-07-02T08:29:03;95963.16;;;19.50;83.56
58385;BME280;44185;47.844;8.966;2023-07-02T08:31:29;95971.59;;;19.18;84.52
58385;BME280;44185;47.844;8.966;2023-07-02T08:33:54;95957.81;;;19.21;81.47
58385;BME280;44185;47.844;8.966;2023-07-02T08:36:20;95960.88;;;19.47;82.56
58385;BME280;44185;47.844;8.966;2023-07-02T08:38:45;95967.41;;;19.16;83.73
58385;BME280;44185;47.844;8.966;2023-07-02T08:41:12;95961.72;;;19.04;82.24
58385;BME280;44185;47.844;8.966;2023-07-02T08:43:40;95958.31;;;19.39;85.16
58385;BME280;44185;47.844;8.966;2023-07-02T08:46:05;95950.56;;;19.51;81.72
58385;BME280;44185;47.844;8.966;2023-07-02T08:48:31;95957.78;;;19.50;79.37
58385;BME280;44185;47.844;8.966;2023-07-02T08:50:56;95958.69;;;20.07;80.75
58385;BME280;44185;47.844;8.966;2023-07-02T08:53:22;95952.50;;;20.49;75.56
58385;BME280;44185;47.844;8.966;2023-07-02T08:55:48;95944.69;;;20.11;74.99
58385;BME280;44185;47.844;8.966;2023-07-02T08:58:14;95953.47;;;19.92;74.06
58385;BME280;44185;47.844;8.966;2023-07-02T09:00:41;95951.28;;;19.38;76.41
58385;BME280;44185;47.844;8.966;2023-07-02T09:03:26;95959.66;;;19.50;78.07
58385;BME280;44185;47.844;8.966;2023-07-02T09:05:52;95956.75;;;19.51;75.59
58385;BME280;44185;47.844;8.966;2023-07-02T09:08:23;95961.03;;;19.45;75.80
58385;BME280;44185;47.844;8.966;2023-07-02T09:10:48;95966.00;;;19.42;77.42
58385;BME280;44185;47.844;8.966;2023-07-02T09:13:14;95964.94;;;19.43;79.33
58385;BME280;44185;47.844;8.966;2023-07-02T09:15:41;95958.63;;;19.00;80.48
58385;BME280;44185;47.844;8.966;2023-07-02T09:18:19;95951.78;;;19.19;79.90
58385;BME280;44185;47.844;8.966;2023-07-02T09:20:45;95961.84;;;19.39;79.36
58385;BME280;44185;47.844;8.966;2023-07-02T09:23:10;95950.50;;;19.15;78.95
58385;BME280;44185;47.844;8.966;2023-07-02T09:25:38;95954.13;;;19.58;80.19
58385;BME280;44185;47.844;8.966;2023-07-02T09:28:14;95950.56;;;19.86;78.65
58385;BME280;44185;47.844;8.966;2023-07-02T09:30:53;95955.75;;;19.52;77.26
58385;BME280;44185;47.844;8.966;2023-07-02T09:33:19;95952.59;;;20.20;78.12
58385;BME280;44185;47.844;8.966;2023-07-02T09:35:45;95952.94;;;20.10;75.45
58385;BME280;44185;47.844;8.966;2023-07-02T09:38:10;95955.75;;;20.37;77.89
58385;BME280;44185;47.844;8.966;2023-07-02T09:40:44;95959.59;;;20.14;77.18
58385;BME280;44185;47.844;8.966;2023-07-02T09:43:11;95954.03;;;19.80;76.70
58385;BME280;44185;47.844;8.966;2023-07-02T09:45:36;95947.88;;;19.86;77.31
58385;BME280;44185;47.844;8.966;2023-07-02T09:48:05;95940.25;;;19.54;76.80
58385;BME280;44185;47.844;8.966;2023-07-02T09:50:32;95942.00;;;19.69;76.19
58385;BME280;44185;47.844;8.966;2023-07-02T09:52:57;95934.69;;;19.20;77.23
58385;BME280;44185;47.844;8.966;2023-07-02T09:55:23;95937.66;;;19.68;77.22
58385;BME280;44185;47.844;8.966;2023-07-02T09:57:49;95938.50;;;19.69;76.71
58385;BME280;44185;47.844;8.966;2023-07-02T10:00:15;95943.44;;;19.36;78.59
58385;BME280;44185;47.844;8.966;2023-07-02T10:02:41;95944.56;;;19.49;78.87
58385;BME280;44185;47.844;8.966;2023-07-02T10:05:08;95941.44;;;19.81;80.16
58385;BME280;44185;47.844;8.966;2023-07-02T10:07:33;95944.19;;;19.94;75.07
58385;BME280;44185;47.844;8.966;2023-07-02T10:09:59;95938.44;;;19.62;78.70
58385;BME280;44185;47.844;8.966;2023-07-02T10:12:25;95937.66;;;19.68;77.22
58385;BME280;44185;47.844;8.966;2023-07-02T10:14:52;95942.13;;;19.89;76.77
58385;BME280;44185;47.844;8.966;2023-07-02T10:17:25;95939.28;;;20.05;76.34
58385;BME280;44185;47.844;8.966;2023-07-02T10:19:51;95936.06;;;19.81;76.09
58385;BME280;44185;47.844;8.966;2023-07-02T10:22:19;95935.09;;;19.53;75.30
58385;BME280;44185;47.844;8.966;2023-07-02T10:24:51;95940.56;;;19.73;76.75
58385;BME280;44185;47.844;8.966;2023-07-02T10:27:16;95939.81;;;19.86;74.08
58385;BME280;44185;47.844;8.966;2023-07-02T10:29:49;95941.34;;;20.09;75.99
58385;BME280;44185;47.844;8.966;2023-07-02T10:32:25;95931.25;;;20.11;74.03
58385;BME280;44185;47.844;8.966;2023-07-02T10:34:51;95943.72;;;20.19;74.48
58385;BME280;44185;47.844;8.966;2023-07-02T10:37:18;95945.03;;;20.51;74.04
58385;BME280;44185;47.844;8.966;2023-07-02T10:39:44;95938.44;;;20.60;73.89
58385;BME280;44185;47.844;8.966;2023-07-02T10:42:10;95936.59;;;20.74;75.19
58385;BME280;44185;47.844;8.966;2023-07-02T10:44:47;95934.25;;;20.30;72.13
58385;BME280;44185;47.844;8.966;2023-07-02T10:47:13;95939.66;;;20.01;73.17
58385;BME280;44185;47.844;8.966;2023-07-02T10:49:38;95936.41;;;20.06;71.95
58385;BME280;44185;47.844;8.966;2023-07-02T10:52:05;95928.22;;;20.21;73.58
58385;BME280;44185;47.844;8.966;2023-07-02T10:54:42;95926.38;;;20.29;73.01
58385;BME280;44185;47.844;8.966;2023-07-02T10:57:08;95937.19;;;20.63;73.02
58385;BME280;44185;47.844;8.966;2023-07-02T10:59:34;95938.47;;;20.87;70.95
58385;BME280;44185;47.844;8.966;2023-07-02T11:01:59;95932.28;;;21.00;72.86
58385;BME280;44185;47.844;8.966;2023-07-02T11:04:25;95938.06;;;20.91;70.71
58385;BME280;44185;47.844;8.966;2023-07-02T11:06:50;95944.38;;;20.35;70.91
58385;BME280;44185;47.844;8.966;2023-07-02T11:09:16;95939.09;;;20.83;72.10
58385;BME280;44185;47.844;8.966;2023-07-02T11:11:51;95941.56;;;20.84;70.33
58385;BME280;44185;47.844;8.966;2023-07-02T11:14:26;95936.66;;;21.08;68.74
58385;BME280;44185;47.844;8.966;2023-07-02T11:16:54;95935.00;;;21.21;69.73
58385;BME280;44185;47.844;8.966;2023-07-02T11:19:19;95934.09;;;21.68;71.72
58385;BME280;44185;47.844;8.966;2023-07-02T11:21:51;95919.88;;;21.47;69.58
58385;BME280;44185;47.844;8.966;2023-07-02T11:24:26;95922.38;;;21.15;67.95
58385;BME280;44185;47.844;8.966;2023-07-02T11:26:54;95921.97;;;21.04;67.05
58385;BME280;44185;47.844;8.966;2023-07-02T11:29:20;95915.13;;;21.22;68.34
58385;BME280;44185;47.844;8.966;2023-07-02T11:31:45;95924.59;;;21.45;72.54
58385;BME280;44185;47.844;8.966;2023-07-02T11:34:12;95913.44;;;21.55;67.44
58385;BME280;44185;47.844;8.966;2023-07-02T11:36:38;95908.66;;;21.50;67.88
58385;BME280;44185;47.844;8.966;2023-07-02T11:39:03;95904.22;;;21.76;67.52
58385;BME280;44185;47.844;8.966;2023-07-02T11:41:36;95917.88;;;21.82;67.46
58385;BME280;44185;47.844;8.966;2023-07-02T11:44:03;95919.06;;;22.06;66.90
58385;BME280;44185;47.844;8.966;2023-07-02T11:46:28;95911.75;;;21.67;65.18
58385;BME280;44185;47.844;8.966;2023-07-02T11:48:54;95907.53;;;21.85;66.82
58385;BME280;44185;47.844;8.966;2023-07-02T11:51:19;95909.63;;;21.83;62.48
58385;BME280;44185;47.844;8.966;2023-07-02T11:53:44;95918.78;;;21.62;65.72
58385;BME280;44185;47.844;8.966;2023-07-02T11:56:10;95916.69;;;21.71;63.64
58385;BME280;44185;47.844;8.966;2023-07-02T11:58:35;95914.81;;;21.78;64.53
58385;BME280;44185;47.844;8.966;2023-07-02T12:01:02;95909.69;;;21.56;63.07
58385;BME280;44185;47.844;8.966;2023-07-02T12:03:27;95915.09;;;21.49;64.43
58385;BME280;44185;47.844;8.966;2023-07-02T12:05:53;95911.56;;;21.49;65.03
58385;BME280;44185;47.844;8.966;2023-07-02T12:08:18;95909.28;;;21.52;64.40
58385;BME280;44185;47.844;8.966;2023-07-02T12:10:44;95916.72;;;21.64;64.19
58385;BME280;44185;47.844;8.966;2023-07-02T12:13:09;95907.78;;;21.70;63.33
58385;BME280;44185;47.844;8.966;2023-07-02T12:15:35;95910.69;;;21.75;63.52
58385;BME280;44185;47.844;8.966;2023-07-02T12:18:01;95918.94;;;21.74;62.69
58385;BME280;44185;47.844;8.966;2023-07-02T12:20:27;95908.25;;;21.60;62.77
58385;BME280;44185;47.844;8.966;2023-07-02T12:22:53;95907.16;;;21.75;63.88
58385;BME280;44185;47.844;8.966;2023-07-02T12:25:18;95905.03;;;21.97;64.30
58385;BME280;44185;47.844;8.966;2023-07-02T12:27:43;95910.66;;;21.82;62.72
58385;BME280;44185;47.844;8.966;2023-07-02T12:30:09;95901.53;;;21.76;63.08
58385;BME280;44185;47.844;8.966;2023-07-02T12:32:35;95897.94;;;22.03;63.34
58385;BME280;44185;47.844;8.966;2023-07-02T12:35:02;95897.16;;;22.03;61.40
58385;BME280;44185;47.844;8.966;2023-07-02T12:37:27;95889.88;;;22.03;59.42
58385;BME280;44185;47.844;8.966;2023-07-02T12:39:53;95902.38;;;22.30;58.16
58385;BME280;44185;47.844;8.966;2023-07-02T12:42:19;95901.09;;;22.39;58.77
58385;BME280;44185;47.844;8.966;2023-07-02T12:44:44;95899.22;;;22.00;59.24
58385;BME280;44185;47.844;8.966;2023-07-02T12:47:10;95900.22;;;22.13;59.70
58385;BME280;44185;47.844;8.966;2023-07-02T12:49:35;95902.00;;;22.26;59.79